Time;durP1;ratioP1;P1;durP2;ratioP2;P2;SDS_P1;SDS_P2;PMS_P1;PMS_P2;Temp;Humidity;BMP_temperature;BMP_pressure;BME280_temperature;BME280_humidity;BME280_pressure;Samples;Min_cycle;Max_cycle;Signal;HPM_P1;HPM_P2
2022/07/17 00:02:03;;;;;;;;;;;;;;;;;;2206563;59;1235;-62
2022/07/17 00:04:39;;;;;;;;;;;;;;;;;;2206095;59;1290;-64
2022/07/17 00:07:12;;;;;;;;;;;;;;;;;;2206513;67;1206;-64
2022/07/17 00:09:45;;;;;;;;;;;;;;;;;;2206700;67;1172;-62
2022/07/17 00:12:18;;;;;;;;;;;;;;;;;;2206296;59;1454;-63
2022/07/17 00:14:52;;;;;;;;;;;;;;;;;;2206304;67;1210;-63
2022/07/17 00:17:25;;;;;;;;;;;;;;;;;;2206160;67;1937;-63
2022/07/17 00:20:01;;;;;;;;;;;;;;;;;;2206295;67;1230;-65
2022/07/17 00:22:34;;;;;;;;;;;;;;;;;;2206065;67;1124;-63
2022/07/17 00:25:08;;;;;;;;;;;;;;;;;;2206653;67;1116;-64
2022/07/17 00:27:42;;;;;;;;;;;;;;;;;;2206206;59;2087;-64
2022/07/17 00:30:16;;;;;;;;;;;;;;;;;;2206252;67;1247;-64
2022/07/17 00:32:49;;;;;;;;;;;;;;;;;;2206408;67;1049;-64
2022/07/17 00:35:25;;;;;;;;;;;;;;;;;;2206147;67;1628;-64
2022/07/17 00:37:58;;;;;;;;;;;;;;;;;;2205790;67;1928;-64
2022/07/17 00:40:31;;;;;;;;;;;;;;;;;;2206104;67;1262;-65
2022/07/17 00:43:04;;;;;;;;;;;;;;;;;;2205819;67;1208;-65
2022/07/17 00:45:37;;;;;;;;;;;;;;;;;;2205810;67;1156;-62
2022/07/17 00:48:12;;;;;;;;;;;;;;;;;;2206043;67;1249;-63
2022/07/17 00:50:48;;;;;;;;;;;;;;;;;;2205871;67;1247;-63
2022/07/17 00:53:22;;;;;;;;;;;;;;;;;;2205950;67;1287;-64
2022/07/17 00:55:55;;;;;;;;;;;;;;;;;;2206073;67;1259;-63
2022/07/17 00:58:31;;;;;;;;;;;;;;;;;;2205651;67;1934;-63
2022/07/17 01:01:06;;;;;;;;;;;;;;;;;;2205859;59;1625;-64
2022/07/17 01:03:39;;;;;;;;;;;;;;;;;;2206744;67;1189;-63
2022/07/17 01:06:15;;;;;;;;;;;;;;;;;;2206287;67;1172;-64
2022/07/17 01:08:48;;;;;;;;;;;;;;;;;;2206707;67;1097;-64
2022/07/17 01:11:22;;;;;;;;;;;;;;;;;;2207920;59;1966;-63
2022/07/17 01:13:55;;;;;;;;;;;;;;;;;;2205726;59;1263;-64
2022/07/17 01:16:29;;;;;;;;;;;;;;;;;;2206795;67;1262;-63
2022/07/17 01:19:02;;;;;;;;;;;;;;;;;;2203306;67;1920;-62
2022/07/17 01:21:45;;;;;;;;;;;;;;;;;;2206105;67;1224;-64
2022/07/17 01:24:19;;;;;;;;;;;;;;;;;;2205182;59;2035;-64
2022/07/17 01:26:53;;;;;;;;;;;;;;;;;;2207311;59;2241;-64
2022/07/17 01:29:26;;;;;;;;;;;;;;;;;;2206838;67;1142;-62
2022/07/17 01:31:59;;;;;;;;;;;;;;;;;;2205764;67;1300;-60
2022/07/17 01:34:32;;;;;;;;;;;;;;;;;;2207456;67;1248;-64
2022/07/17 01:37:08;;;;;;;;;;;;;;;;;;2207085;67;1994;-63
2022/07/17 01:39:56;;;;;;;;;;;;;;;;;;2205783;67;1265;-64
2022/07/17 01:42:30;;;;;;;;;;;;;;;;;;2206841;67;1105;-64
2022/07/17 01:45:04;;;;;;;;;;;;;;;;;;2206332;67;1196;-61
2022/07/17 01:47:37;;;;;;;;;;;;;;;;;;2207149;67;1271;-64
2022/07/17 01:50:12;;;;;;;;;;;;;;;;;;2206428;67;1194;-64
2022/07/17 01:52:48;;;;;;;;;;;;;;;;;;2205564;67;1089;-64
2022/07/17 01:55:21;;;;;;;;;;;;;;;;;;2206412;67;1114;-63
2022/07/17 01:57:54;;;;;;;;;;;;;;;;;;2206943;67;1933;-64
2022/07/17 02:00:28;;;;;;;;;;;;;;;;;;2207542;59;1244;-63
2022/07/17 02:03:01;;;;;;;;;;;;;;;;;;2205760;59;1229;-63
2022/07/17 02:05:34;;;;;;;;;;;;;;;;;;2207683;67;1240;-64
2022/07/17 02:08:10;;;;;;;;;;;;;;;;;;2206729;67;1148;-64
2022/07/17 02:10:44;;;;;;;;;;;;;;;;;;2206478;59;1379;-62
2022/07/17 02:13:17;;;;;;;;;;;;;;;;;;2207297;59;1316;-64
2022/07/17 02:15:50;;;;;;;;;;;;;;;;;;2206886;67;1215;-61
2022/07/17 02:18:23;;;;;;;;;;;;;;;;;;2206812;67;1989;-64
2022/07/17 02:20:56;;;;;;;;;;;;;;;;;;2206894;67;1313;-64
2022/07/17 02:23:33;;;;;;;;;;;;;;;;;;2206623;59;2015;-63
2022/07/17 02:26:08;;;;;;;;;;;;;;;;;;2206126;59;2139;-64
2022/07/17 02:28:41;;;;;;;;;;;;;;;;;;2207024;67;1225;-64
2022/07/17 02:31:14;;;;;;;;;;;;;;;;;;2206839;67;1338;-64
2022/07/17 02:33:47;;;;;;;;;;;;;;;;;;2206468;67;1261;-64
2022/07/17 02:36:21;;;;;;;;;;;;;;;;;;2206520;67;1247;-64
2022/07/17 02:38:57;;;;;;;;;;;;;;;;;;2206273;67;1980;-64
2022/07/17 02:41:30;;;;;;;;;;;;;;;;;;2206065;67;1241;-63
2022/07/17 02:44:03;;;;;;;;;;;;;;;;;;2206474;67;1156;-63
2022/07/17 02:46:36;;;;;;;;;;;;;;;;;;2207179;67;1266;-64
2022/07/17 02:49:09;;;;;;;;;;;;;;;;;;2205934;67;1062;-62
2022/07/17 02:51:42;;;;;;;;;;;;;;;;;;2206642;67;1294;-64
2022/07/17 02:54:18;;;;;;;;;;;;;;;;;;2206777;67;1192;-64
2022/07/17 02:56:51;;;;;;;;;;;;;;;;;;2207136;67;1116;-64
2022/07/17 02:59:24;;;;;;;;;;;;;;;;;;2206514;67;1936;-65
2022/07/17 03:01:58;;;;;;;;;;;;;;;;;;2206619;59;1315;-63
2022/07/17 03:04:31;;;;;;;;;;;;;;;;;;2206300;59;2027;-64
2022/07/17 03:07:04;;;;;;;;;;;;;;;;;;2206277;59;1438;-64
2022/07/17 03:09:40;;;;;;;;;;;;;;;;;;2206592;67;1244;-64
2022/07/17 03:12:13;;;;;;;;;;;;;;;;;;2206170;59;1505;-64
2022/07/17 03:14:47;;;;;;;;;;;;;;;;;;2206416;67;1275;-63
2022/07/17 03:17:20;;;;;;;;;;;;;;;;;;2205922;67;1933;-61
2022/07/17 03:19:53;;;;;;;;;;;;;;;;;;2206031;59;1442;-63
2022/07/17 03:22:26;;;;;;;;;;;;;;;;;;2205736;67;1188;-64
2022/07/17 03:25:02;;;;;;;;;;;;;;;;;;2206175;59;1942;-63
2022/07/17 03:27:35;;;;;;;;;;;;;;;;;;2206300;59;2075;-64
2022/07/17 03:30:09;;;;;;;;;;;;;;;;;;2206304;67;1240;-63
2022/07/17 03:32:42;;;;;;;;;;;;;;;;;;2206791;67;1077;-64
2022/07/17 03:35:16;;;;;;;;;;;;;;;;;;2206402;59;1236;-63
2022/07/17 03:37:49;;;;;;;;;;;;;;;;;;2206700;59;1987;-63
2022/07/17 03:40:25;;;;;;;;;;;;;;;;;;2206342;67;1250;-64
2022/07/17 03:42:58;;;;;;;;;;;;;;;;;;2206090;67;1155;-63
2022/07/17 03:45:31;;;;;;;;;;;;;;;;;;2206311;67;1071;-63
2022/07/17 03:48:04;;;;;;;;;;;;;;;;;;2206361;67;1219;-64
2022/07/17 03:50:37;;;;;;;;;;;;;;;;;;2206031;67;1246;-62
2022/07/17 03:53:10;;;;;;;;;;;;;;;;;;2205878;67;1217;-63
2022/07/17 03:55:46;;;;;;;;;;;;;;;;;;2206557;67;1143;-64
2022/07/17 03:58:19;;;;;;;;;;;;;;;;;;2206046;67;1987;-63
2022/07/17 04:00:52;;;;;;;;;;;;;;;;;;2206529;59;1311;-63
2022/07/17 04:03:26;;;;;;;;;;;;;;;;;;2205870;67;1212;-63
2022/07/17 04:05:59;;;;;;;;;;;;;;;;;;2206151;67;1335;-62
2022/07/17 04:08:32;;;;;;;;;;;;;;;;;;2206522;67;1047;-62
2022/07/17 04:11:08;;;;;;;;;;;;;;;;;;2206307;59;1415;-60
2022/07/17 04:13:41;;;;;;;;;;;;;;;;;;2205919;59;1200;-63
2022/07/17 04:16:14;;;;;;;;;;;;;;;;;;2202251;67;1125;-64
2022/07/17 04:18:47;;;;;;;;;;;;;;;;;;2205547;67;1940;-63
2022/07/17 04:21:21;;;;;;;;;;;;;;;;;;2206108;59;1180;-64
2022/07/17 04:23:54;;;;;;;;;;;;;;;;;;2205538;59;4673;-63
2022/07/17 04:26:30;;;;;;;;;;;;;;;;;;2207153;59;2216;-64
2022/07/17 04:29:03;;;;;;;;;;;;;;;;;;2206037;67;1177;-64
2022/07/17 04:31:36;;;;;;;;;;;;;;;;;;2205973;67;1178;-64
2022/07/17 04:34:09;;;;;;;;;;;;;;;;;;2205679;67;1192;-64
2022/07/17 04:36:42;;;;;;;;;;;;;;;;;;2206090;67;1211;-62
2022/07/17 04:39:15;;;;;;;;;;;;;;;;;;2206084;67;1992;-64
2022/07/17 04:41:51;;;;;;;;;;;;;;;;;;2205587;67;1235;-64
2022/07/17 04:44:24;;;;;;;;;;;;;;;;;;2206346;67;1223;-64
2022/07/17 04:46:58;;;;;;;;;;;;;;;;;;2206794;67;1149;-64
2022/07/17 04:49:31;;;;;;;;;;;;;;;;;;2206780;67;1091;-64
2022/07/17 04:52:05;;;;;;;;;;;;;;;;;;2207434;67;1283;-63
2022/07/17 04:54:38;;;;;;;;;;;;;;;;;;2206583;67;1183;-63
2022/07/17 04:57:14;;;;;;;;;;;;;;;;;;2207180;67;1160;-64
2022/07/17 04:59:47;;;;;;;;;;;;;;;;;;2206260;67;2011;-63
2022/07/17 05:02:20;;;;;;;;;;;;;;;;;;2206979;67;1203;-64
2022/07/17 05:04:53;;;;;;;;;;;;;;;;;;2207021;67;1137;-61
2022/07/17 05:07:26;;;;;;;;;;;;;;;;;;2206519;67;1229;-64
2022/07/17 05:10:00;;;;;;;;;;;;;;;;;;2206585;59;1255;-64
2022/07/17 05:12:36;;;;;;;;;;;;;;;;;;2206441;59;1606;-64
2022/07/17 05:15:09;;;;;;;;;;;;;;;;;;2206478;67;1096;-64
2022/07/17 05:17:42;;;;;;;;;;;;;;;;;;2206866;67;1138;-62
2022/07/17 05:20:15;;;;;;;;;;;;;;;;;;2206261;67;1949;-62
2022/07/17 05:22:48;;;;;;;;;;;;;;;;;;2206340;59;1921;-64
2022/07/17 05:25:22;;;;;;;;;;;;;;;;;;2206304;67;1112;-64
2022/07/17 05:27:58;;;;;;;;;;;;;;;;;;2206721;59;1810;-62
2022/07/17 05:30:32;;;;;;;;;;;;;;;;;;2206540;67;1265;-62
2022/07/17 05:33:05;;;;;;;;;;;;;;;;;;2206924;67;1208;-59
2022/07/17 05:35:38;;;;;;;;;;;;;;;;;;2207211;67;1120;-64
2022/07/17 05:38:12;;;;;;;;;;;;;;;;;;2203621;59;1938;-63
2022/07/17 05:40:45;;;;;;;;;;;;;;;;;;2206735;67;1446;-64
2022/07/17 05:43:21;;;;;;;;;;;;;;;;;;2207370;67;1220;-64
2022/07/17 05:45:55;;;;;;;;;;;;;;;;;;2206915;67;1159;-64
2022/07/17 05:48:28;;;;;;;;;;;;;;;;;;2206741;67;1114;-63
2022/07/17 05:51:02;;;;;;;;;;;;;;;;;;2206193;67;1241;-64
2022/07/17 05:53:35;;;;;;;;;;;;;;;;;;2207062;67;1187;-62
2022/07/17 05:56:08;;;;;;;;;;;;;;;;;;2206937;67;1115;-64
2022/07/17 05:58:44;;;;;;;;;;;;;;;;;;2207036;67;1949;-63
2022/07/17 06:01:17;;;;;;;;;;;;;;;;;;2206862;59;1251;-62
2022/07/17 06:03:50;;;;;;;;;;;;;;;;;;2206630;67;1177;-63
2022/07/17 06:06:23;;;;;;;;;;;;;;;;;;2207126;67;1129;-64
2022/07/17 06:08:57;;;;;;;;;;;;;;;;;;2206890;67;1275;-63
2022/07/17 06:11:30;;;;;;;;;;;;;;;;;;2206565;59;1327;-64
2022/07/17 06:14:06;;;;;;;;;;;;;;;;;;2206516;67;1290;-62
2022/07/17 06:16:39;;;;;;;;;;;;;;;;;;2207100;67;1130;-62
2022/07/17 06:19:12;;;;;;;;;;;;;;;;;;2206247;67;1927;-63
2022/07/17 06:21:45;;;;;;;;;;;;;;;;;;2206791;67;1294;-64
2022/07/17 06:24:18;;;;;;;;;;;;;;;;;;2206504;59;1934;-65
2022/07/17 06:26:51;;;;;;;;;;;;;;;;;;2206955;59;1764;-63
2022/07/17 06:29:27;;;;;;;;;;;;;;;;;;2206744;67;1254;-63
2022/07/17 06:32:00;;;;;;;;;;;;;;;;;;2206451;67;1378;-62
2022/07/17 06:34:34;;;;;;;;;;;;;;;;;;2206586;67;1022;-62
2022/07/17 06:37:07;;;;;;;;;;;;;;;;;;2205977;67;1204;-64
2022/07/17 06:39:40;;;;;;;;;;;;;;;;;;2206254;67;2004;-64
2022/07/17 06:42:13;;;;;;;;;;;;;;;;;;2206078;67;1164;-64
2022/07/17 06:44:50;;;;;;;;;;;;;;;;;;2206660;67;1093;-62
2022/07/17 06:47:23;;;;;;;;;;;;;;;;;;2207084;67;1105;-62
2022/07/17 06:49:56;;;;;;;;;;;;;;;;;;2205961;67;1317;-62
2022/07/17 06:52:29;;;;;;;;;;;;;;;;;;2206853;67;1124;-64
2022/07/17 06:55:02;;;;;;;;;;;;;;;;;;2206746;67;1198;-64
2022/07/17 06:57:35;;;;;;;;;;;;;;;;;;2206630;67;1129;-64
2022/07/17 07:00:12;;;;;;;;;;;;;;;;;;2206286;59;1944;-65
2022/07/17 07:02:45;;;;;;;;;;;;;;;;;;2205739;67;1199;-65
2022/07/17 07:05:18;;;;;;;;;;;;;;;;;;2206839;67;1185;-63
2022/07/17 07:07:51;;;;;;;;;;;;;;;;;;2207069;67;1126;-64
2022/07/17 07:10:25;;;;;;;;;;;;;;;;;;2207130;67;1245;-63
2022/07/17 07:12:58;;;;;;;;;;;;;;;;;;2206976;59;1244;-64
2022/07/17 07:15:34;;;;;;;;;;;;;;;;;;2207177;67;1244;-64
2022/07/17 07:18:08;;;;;;;;;;;;;;;;;;2206875;67;1045;-64
2022/07/17 07:20:41;;;;;;;;;;;;;;;;;;2207222;67;1974;-65
2022/07/17 07:23:14;;;;;;;;;;;;;;;;;;2206121;59;2038;-64
2022/07/17 07:25:47;;;;;;;;;;;;;;;;;;2206439;67;1083;-65
2022/07/17 07:28:20;;;;;;;;;;;;;;;;;;2206925;67;1269;-62
2022/07/17 07:30:56;;;;;;;;;;;;;;;;;;2206554;67;1186;-65
2022/07/17 07:33:29;;;;;;;;;;;;;;;;;;2206655;67;1102;-63
2022/07/17 07:36:02;;;;;;;;;;;;;;;;;;2206664;67;1198;-64
2022/07/17 07:38:36;;;;;;;;;;;;;;;;;;2206829;67;1228;-65
2022/07/17 07:41:09;;;;;;;;;;;;;;;;;;2206577;59;1950;-64
2022/07/17 07:43:43;;;;;;;;;;;;;;;;;;2206203;67;1178;-64
2022/07/17 07:46:19;;;;;;;;;;;;;;;;;;2206891;67;1129;-64
2022/07/17 07:48:52;;;;;;;;;;;;;;;;;;2206624;67;1195;-65
2022/07/17 07:51:25;;;;;;;;;;;;;;;;;;2207064;67;1235;-65
2022/07/17 07:53:59;;;;;;;;;;;;;;;;;;2206204;67;1145;-65
2022/07/17 07:56:32;;;;;;;;;;;;;;;;;;2207267;67;1170;-64
2022/07/17 07:59:06;;;;;;;;;;;;;;;;;;2206534;67;1929;-65
2022/07/17 08:01:42;;;;;;;;;;;;;;;;;;2206797;59;1197;-65
2022/07/17 08:04:15;;;;;;;;;;;;;;;;;;2205901;59;1783;-64
2022/07/17 08:06:48;;;;;;;;;;;;;;;;;;2205659;59;1444;-64
2022/07/17 08:09:21;;;;;;;;;;;;;;;;;;2206432;67;1311;-65
2022/07/17 08:11:55;;;;;;;;;;;;;;;;;;2206885;59;1323;-65
2022/07/17 08:14:28;;;;;;;;;;;;;;;;;;2206270;67;1243;-65
2022/07/17 08:17:04;;;;;;;;;;;;;;;;;;2206192;67;1228;-65
2022/07/17 08:19:37;;;;;;;;;;;;;;;;;;2206287;67;1997;-65
2022/07/17 08:22:10;;;;;;;;;;;;;;;;;;2205797;67;1197;-65
2022/07/17 08:24:45;;;;;;;;;;;;;;;;;;2206096;67;1871;-65
2022/07/17 08:27:18;;;;;;;;;;;;;;;;;;2206326;59;2030;-63
2022/07/17 08:29:51;;;;;;;;;;;;;;;;;;2206185;67;1202;-65
2022/07/17 08:32:27;;;;;;;;;;;;;;;;;;2206473;67;1221;-65
2022/07/17 08:35:00;;;;;;;;;;;;;;;;;;2206108;67;1290;-64
2022/07/17 08:37:34;;;;;;;;;;;;;;;;;;2206417;67;1284;-64
2022/07/17 08:40:08;;;;;;;;;;;;;;;;;;2205942;67;1979;-65
2022/07/17 08:42:42;;;;;;;;;;;;;;;;;;2206432;67;1340;-64
2022/07/17 08:45:16;;;;;;;;;;;;;;;;;;2206352;67;1223;-64
2022/07/17 08:47:52;;;;;;;;;;;;;;;;;;2206268;67;1199;-65
2022/07/17 08:50:29;;;;;;;;;;;;;;;;;;2206076;67;1231;-64
2022/07/17 08:53:02;;;;;;;;;;;;;;;;;;2205758;67;1196;-65
2022/07/17 08:55:35;;;;;;;;;;;;;;;;;;2205878;67;1193;-64
2022/07/17 08:58:08;;;;;;;;;;;;;;;;;;2206308;67;1058;-65
2022/07/17 09:00:42;;;;;;;;;;;;;;;;;;2206318;59;1988;-65
2022/07/17 09:03:18;;;;;;;;;;;;;;;;;;2206403;67;1096;-65
2022/07/17 09:05:52;;;;;;;;;;;;;;;;;;2206749;67;1105;-66
2022/07/17 09:08:29;;;;;;;;;;;;;;;;;;2207264;67;1243;-66
2022/07/17 09:11:02;;;;;;;;;;;;;;;;;;2206796;59;1235;-65
2022/07/17 09:13:35;;;;;;;;;;;;;;;;;;2207014;67;1089;-63
2022/07/17 09:16:10;;;;;;;;;;;;;;;;;;2206821;67;1132;-65
2022/07/17 09:18:50;;;;;;;;;;;;;;;;;;2207005;67;1184;-66
2022/07/17 09:21:24;;;;;;;;;;;;;;;;;;2206627;67;1998;-66
2022/07/17 09:24:00;;;;;;;;;;;;;;;;;;2206595;59;1918;-65
2022/07/17 09:26:37;;;;;;;;;;;;;;;;;;2206148;59;1715;-66
2022/07/17 09:29:11;;;;;;;;;;;;;;;;;;2206281;67;1267;-65
2022/07/17 09:31:44;;;;;;;;;;;;;;;;;;2206744;67;1181;-64
2022/07/17 09:34:23;;;;;;;;;;;;;;;;;;2206822;67;1223;-65
2022/07/17 09:37:02;;;;;;;;;;;;;;;;;;2207187;67;1220;-65
2022/07/17 09:39:39;;;;;;;;;;;;;;;;;;2206865;67;1133;-65
2022/07/17 09:42:23;;;;;;;;;;;;;;;;;;2206520;67;1173;-64
2022/07/17 09:44:57;;;;;;;;;;;;;;;;;;2206414;67;1158;-65
2022/07/17 09:47:31;;;;;;;;;;;;;;;;;;2206768;67;1149;-64
2022/07/17 09:50:08;;;;;;;;;;;;;;;;;;2206325;67;1254;-66
2022/07/17 09:52:41;;;;;;;;;;;;;;;;;;2206039;67;1188;-65
2022/07/17 09:55:15;;;;;;;;;;;;;;;;;;2206606;67;1240;-65
2022/07/17 09:57:50;;;;;;;;;;;;;;;;;;2206865;67;1091;-63
2022/07/17 10:00:23;;;;;;;;;;;;;;;;;;2206734;59;1930;-66
2022/07/17 10:02:56;;;;;;;;;;;;;;;;;;2205944;67;1279;-65
2022/07/17 10:05:32;;;;;;;;;;;;;;;;;;2206158;59;1375;-64
2022/07/17 10:08:06;;;;;;;;;;;;;;;;;;2206743;67;1441;-65
2022/07/17 10:10:39;;;;;;;;;;;;;;;;;;2206990;59;1390;-64
2022/07/17 10:13:15;;;;;;;;;;;;;;;;;;2206047;67;1205;-65
2022/07/17 10:15:49;;;;;;;;;;;;;;;;;;2206580;67;1085;-62
2022/07/17 10:18:23;;;;;;;;;;;;;;;;;;2206546;59;1137;-65
2022/07/17 10:21:08;;;;;;;;;;;;;;;;;;2206026;67;1932;-64
2022/07/17 10:23:41;;;;;;;;;;;;;;;;;;2207507;59;1905;-64
2022/07/17 10:26:14;;;;;;;;;;;;;;;;;;2207526;67;1868;-66
2022/07/17 10:28:48;;;;;;;;;;;;;;;;;;2207640;67;1138;-64
2022/07/17 10:31:26;;;;;;;;;;;;;;;;;;2206316;67;1252;-65
2022/07/17 10:34:00;;;;;;;;;;;;;;;;;;2207751;67;1287;-64
2022/07/17 10:36:40;;;;;;;;;;;;;;;;;;2206712;67;1032;-64
2022/07/17 10:39:14;;;;;;;;;;;;;;;;;;2207281;67;2016;-64
2022/07/17 10:41:57;;;;;;;;;;;;;;;;;;2207007;60;1933;-63
2022/07/17 10:44:32;;;;;;;;;;;;;;;;;;2207573;67;1084;-66
2022/07/17 10:47:05;;;;;;;;;;;;;;;;;;2206953;67;1228;-65
2022/07/17 10:49:38;;;;;;;;;;;;;;;;;;2206646;60;1302;-65
2022/07/17 10:52:14;;;;;;;;;;;;;;;;;;2207339;67;1272;-65
2022/07/17 10:54:47;;;;;;;;;;;;;;;;;;2206777;67;1093;-66
2022/07/17 10:57:20;;;;;;;;;;;;;;;;;;2207511;67;1246;-64
2022/07/17 10:59:54;;;;;;;;;;;;;;;;;;2206971;59;1569;-65
2022/07/17 11:02:30;;;;;;;;;;;;;;;;;;2206734;67;1935;-64
2022/07/17 11:05:08;;;;;;;;;;;;;;;;;;2206985;59;1131;-65
2022/07/17 11:07:53;;;;;;;;;;;;;;;;;;2207084;67;1284;-63
2022/07/17 11:10:27;;;;;;;;;;;;;;;;;;2206618;67;1168;-66
2022/07/17 11:13:09;;;;;;;;;;;;;;;;;;2207398;59;1269;-66
2022/07/17 11:15:44;;;;;;;;;;;;;;;;;;2206782;67;1128;-66
2022/07/17 11:18:19;;;;;;;;;;;;;;;;;;2206785;62;1319;-66
2022/07/17 11:20:57;;;;;;;;;;;;;;;;;;2206605;67;1931;-65
2022/07/17 11:23:33;;;;;;;;;;;;;;;;;;2205711;59;1974;-64
2022/07/17 11:26:08;;;;;;;;;;;;;;;;;;2206593;59;2124;-65
2022/07/17 11:28:42;;;;;;;;;;;;;;;;;;2206551;67;1126;-65
2022/07/17 11:31:20;;;;;;;;;;;;;;;;;;2207233;67;1289;-65
2022/07/17 11:33:54;;;;;;;;;;;;;;;;;;2206864;67;1205;-65
2022/07/17 11:36:28;;;;;;;;;;;;;;;;;;2206987;67;1202;-66
2022/07/17 11:39:06;;;;;;;;;;;;;;;;;;2206793;67;1232;-65
2022/07/17 11:41:40;;;;;;;;;;;;;;;;;;2206472;67;1955;-64
2022/07/17 11:44:14;;;;;;;;;;;;;;;;;;2206422;67;1187;-64
2022/07/17 11:46:49;;;;;;;;;;;;;;;;;;2206517;67;1113;-65
2022/07/17 11:49:29;;;;;;;;;;;;;;;;;;2206282;59;1929;-65
2022/07/17 11:52:09;;;;;;;;;;;;;;;;;;2206250;67;1351;-65
2022/07/17 11:54:49;;;;;;;;;;;;;;;;;;2206429;67;1250;-66
2022/07/17 11:57:23;;;;;;;;;;;;;;;;;;2202196;67;1209;-65
2022/07/17 12:00:07;;;;;;;;;;;;;;;;;;2206604;59;1253;-64
2022/07/17 12:02:41;;;;;;;;;;;;;;;;;;2205797;67;1980;-65
2022/07/17 12:05:15;;;;;;;;;;;;;;;;;;2205894;67;1204;-65
2022/07/17 12:07:49;;;;;;;;;;;;;;;;;;2206186;67;1144;-66
2022/07/17 12:10:27;;;;;;;;;;;;;;;;;;2206200;67;1228;-65
2022/07/17 12:13:01;;;;;;;;;;;;;;;;;;2205892;59;1255;-64
2022/07/17 12:15:38;;;;;;;;;;;;;;;;;;2206180;67;1269;-65
2022/07/17 12:18:23;;;;;;;;;;;;;;;;;;2206020;67;1167;-66
2022/07/17 12:20:58;;;;;;;;;;;;;;;;;;2206435;67;1943;-64
2022/07/17 12:23:32;;;;;;;;;;;;;;;;;;2206434;59;2002;-64
2022/07/17 12:26:09;;;;;;;;;;;;;;;;;;2206791;59;1970;-64
2022/07/17 12:28:42;;;;;;;;;;;;;;;;;;2206063;67;1168;-65
2022/07/17 12:31:16;;;;;;;;;;;;;;;;;;2207104;67;1302;-64
2022/07/17 12:33:50;;;;;;;;;;;;;;;;;;2206681;67;1278;-66
2022/07/17 12:36:24;;;;;;;;;;;;;;;;;;2207012;67;1186;-66
2022/07/17 12:38:58;;;;;;;;;;;;;;;;;;2206120;67;1241;-64
2022/07/17 12:41:33;;;;;;;;;;;;;;;;;;2206685;67;1933;-64
2022/07/17 12:44:07;;;;;;;;;;;;;;;;;;2205722;67;1133;-64
2022/07/17 12:46:40;;;;;;;;;;;;;;;;;;2207318;67;1250;-65
2022/07/17 12:49:13;;;;;;;;;;;;;;;;;;2206300;67;1193;-65
2022/07/17 12:51:46;;;;;;;;;;;;;;;;;;2206373;67;1216;-64
2022/07/17 12:54:19;;;;;;;;;;;;;;;;;;2205792;67;1216;-65
2022/07/17 12:56:56;;;;;;;;;;;;;;;;;;2206782;67;1203;-63
2022/07/17 12:59:29;;;;;;;;;;;;;;;;;;2207338;67;1101;-64
2022/07/17 13:02:02;;;;;;;;;;;;;;;;;;2205773;59;1978;-64
2022/07/17 13:04:36;;;;;;;;;;;;;;;;;;2206589;67;1846;-65
2022/07/17 13:07:09;;;;;;;;;;;;;;;;;;2206233;67;1193;-64
2022/07/17 13:09:42;;;;;;;;;;;;;;;;;;2206177;67;1399;-63
2022/07/17 13:12:18;;;;;;;;;;;;;;;;;;2207067;59;1347;-64
2022/07/17 13:14:51;;;;;;;;;;;;;;;;;;2206585;67;1160;-64
2022/07/17 13:17:24;;;;;;;;;;;;;;;;;;2207203;67;1264;-65
2022/07/17 13:19:57;;;;;;;;;;;;;;;;;;2206618;67;1207;-65
2022/07/17 13:22:30;;;;;;;;;;;;;;;;;;2207129;67;2001;-64
2022/07/17 13:25:03;;;;;;;;;;;;;;;;;;2205770;59;2079;-65
2022/07/17 13:27:39;;;;;;;;;;;;;;;;;;2206989;59;1989;-64
2022/07/17 13:30:13;;;;;;;;;;;;;;;;;;2206018;67;1283;-64
2022/07/17 13:32:46;;;;;;;;;;;;;;;;;;2206136;67;1179;-64
2022/07/17 13:35:20;;;;;;;;;;;;;;;;;;2206485;67;1201;-64
2022/07/17 13:37:53;;;;;;;;;;;;;;;;;;2206263;67;1155;-64
2022/07/17 13:40:28;;;;;;;;;;;;;;;;;;2205984;67;1286;-65
2022/07/17 13:43:04;;;;;;;;;;;;;;;;;;2206522;67;1981;-63
2022/07/17 13:45:37;;;;;;;;;;;;;;;;;;2206739;67;1577;-65
2022/07/17 13:48:11;;;;;;;;;;;;;;;;;;2206237;67;1298;-65
2022/07/17 13:50:44;;;;;;;;;;;;;;;;;;2206357;67;1252;-65
2022/07/17 13:53:17;;;;;;;;;;;;;;;;;;2206907;67;1287;-65
2022/07/17 13:55:51;;;;;;;;;;;;;;;;;;2207114;67;1116;-65
2022/07/17 13:58:26;;;;;;;;;;;;;;;;;;2207421;67;1133;-64
2022/07/17 14:01:00;;;;;;;;;;;;;;;;;;2206066;59;1159;-64
2022/07/17 14:03:33;;;;;;;;;;;;;;;;;;2206517;67;1979;-65
2022/07/17 14:06:06;;;;;;;;;;;;;;;;;;2206607;67;1142;-62
2022/07/17 14:08:39;;;;;;;;;;;;;;;;;;2206838;67;1169;-65
2022/07/17 14:11:13;;;;;;;;;;;;;;;;;;2206455;59;1225;-65
2022/07/17 14:13:51;;;;;;;;;;;;;;;;;;2206487;67;1206;-66
2022/07/17 14:16:24;;;;;;;;;;;;;;;;;;2207108;67;1309;-64
2022/07/17 14:19:00;;;;;;;;;;;;;;;;;;2206497;67;1313;-62
2022/07/17 14:21:34;;;;;;;;;;;;;;;;;;2206474;67;1932;-63
2022/07/17 14:24:08;;;;;;;;;;;;;;;;;;2205690;59;2013;-65
2022/07/17 14:26:42;;;;;;;;;;;;;;;;;;2206620;59;2011;-65
2022/07/17 14:29:18;;;;;;;;;;;;;;;;;;2206770;67;1145;-66
2022/07/17 14:31:51;;;;;;;;;;;;;;;;;;2206689;67;1312;-65
2022/07/17 14:34:24;;;;;;;;;;;;;;;;;;2206642;67;1251;-62
2022/07/17 14:36:57;;;;;;;;;;;;;;;;;;2206917;67;1193;-65
2022/07/17 14:39:31;;;;;;;;;;;;;;;;;;2207612;67;1182;-64
2022/07/17 14:42:04;;;;;;;;;;;;;;;;;;2206853;67;1916;-65
2022/07/17 14:44:40;;;;;;;;;;;;;;;;;;2206198;67;1189;-64
2022/07/17 14:47:16;;;;;;;;;;;;;;;;;;2206263;67;1218;-66
2022/07/17 14:49:49;;;;;;;;;;;;;;;;;;2206515;67;1232;-65
2022/07/17 14:52:22;;;;;;;;;;;;;;;;;;2206548;67;1240;-64
2022/07/17 14:54:55;;;;;;;;;;;;;;;;;;2206767;67;1229;-64
2022/07/17 14:57:28;;;;;;;;;;;;;;;;;;2206504;67;1213;-64
2022/07/17 15:00:05;;;;;;;;;;;;;;;;;;2206710;59;1290;-64
2022/07/17 15:02:38;;;;;;;;;;;;;;;;;;2206736;67;1916;-65
2022/07/17 15:05:11;;;;;;;;;;;;;;;;;;2205823;67;1086;-64
2022/07/17 15:07:45;;;;;;;;;;;;;;;;;;2206878;59;1415;-65
2022/07/17 15:10:18;;;;;;;;;;;;;;;;;;2206753;67;1240;-63
2022/07/17 15:12:51;;;;;;;;;;;;;;;;;;2206452;59;1264;-63
2022/07/17 15:15:27;;;;;;;;;;;;;;;;;;2206850;67;1161;-64
2022/07/17 15:18:00;;;;;;;;;;;;;;;;;;2206901;67;1160;-65
2022/07/17 15:20:33;;;;;;;;;;;;;;;;;;2206253;67;1267;-65
2022/07/17 15:23:06;;;;;;;;;;;;;;;;;;2205651;59;2062;-64
2022/07/17 15:25:39;;;;;;;;;;;;;;;;;;2206248;67;1327;-66
2022/07/17 15:28:13;;;;;;;;;;;;;;;;;;2206173;59;1976;-65
2022/07/17 15:30:48;;;;;;;;;;;;;;;;;;2206282;67;1266;-65
2022/07/17 15:33:21;;;;;;;;;;;;;;;;;;2206341;67;1154;-64
2022/07/17 15:35:55;;;;;;;;;;;;;;;;;;2206372;67;1125;-65
2022/07/17 15:38:28;;;;;;;;;;;;;;;;;;2206189;67;1148;-63
2022/07/17 15:41:01;;;;;;;;;;;;;;;;;;2206108;67;2133;-65
2022/07/17 15:43:35;;;;;;;;;;;;;;;;;;2205586;67;2233;-65
2022/07/17 15:46:11;;;;;;;;;;;;;;;;;;2206514;67;1179;-64
2022/07/17 15:48:44;;;;;;;;;;;;;;;;;;2206628;67;1057;-64
2022/07/17 15:51:17;;;;;;;;;;;;;;;;;;2205735;67;1266;-65
2022/07/17 15:53:50;;;;;;;;;;;;;;;;;;2206700;67;1136;-64
2022/07/17 15:56:23;;;;;;;;;;;;;;;;;;2206186;67;1274;-65
2022/07/17 15:58:56;;;;;;;;;;;;;;;;;;2206475;67;1118;-65
2022/07/17 16:01:32;;;;;;;;;;;;;;;;;;2205867;59;1252;-65
2022/07/17 16:04:05;;;;;;;;;;;;;;;;;;2206459;67;1943;-64
2022/07/17 16:06:39;;;;;;;;;;;;;;;;;;2206282;67;1268;-62
2022/07/17 16:09:13;;;;;;;;;;;;;;;;;;2206349;59;1446;-65
2022/07/17 16:11:46;;;;;;;;;;;;;;;;;;2206189;59;1375;-65
2022/07/17 16:14:20;;;;;;;;;;;;;;;;;;2206081;67;1208;-64
2022/07/17 16:16:55;;;;;;;;;;;;;;;;;;2205902;67;1102;-64
2022/07/17 16:19:29;;;;;;;;;;;;;;;;;;2206552;67;1231;-64
2022/07/17 16:22:02;;;;;;;;;;;;;;;;;;2207409;67;1256;-64
2022/07/17 16:24:35;;;;;;;;;;;;;;;;;;2206777;59;2066;-65
2022/07/17 16:27:08;;;;;;;;;;;;;;;;;;2207151;59;1939;-65
2022/07/17 16:29:42;;;;;;;;;;;;;;;;;;2206901;67;1246;-65
2022/07/17 16:32:17;;;;;;;;;;;;;;;;;;2206105;67;1171;-65
2022/07/17 16:34:51;;;;;;;;;;;;;;;;;;2207036;67;1123;-65
2022/07/17 16:37:24;;;;;;;;;;;;;;;;;;2206276;67;1172;-65
2022/07/17 16:39:57;;;;;;;;;;;;;;;;;;2206511;59;1225;-64
2022/07/17 16:42:30;;;;;;;;;;;;;;;;;;2206599;67;1936;-65
2022/07/17 16:45:04;;;;;;;;;;;;;;;;;;2207083;67;1309;-66
2022/07/17 16:47:40;;;;;;;;;;;;;;;;;;2206305;67;1135;-64
2022/07/17 16:50:13;;;;;;;;;;;;;;;;;;2206966;67;1229;-65
2022/07/17 16:52:46;;;;;;;;;;;;;;;;;;2206352;67;1128;-65
2022/07/17 16:55:19;;;;;;;;;;;;;;;;;;2206922;67;1189;-65
2022/07/17 16:57:53;;;;;;;;;;;;;;;;;;2206962;67;1225;-66
2022/07/17 17:19:20;;;;;;;;;;;;;;;;;;2255667;53;1673;-72
2022/07/17 17:21:53;;;;;;;;;;;;;;;;;;2202441;67;1209;-73
2022/07/17 17:24:27;;;;;;;;;;;;;;;;;;2207297;59;1999;-73
2022/07/17 17:27:00;;;;;;;;;;;;;;;;;;2207309;67;2035;-73
2022/07/17 17:29:34;;;;;;;;;;;;;;;;;;2207676;59;1195;-73
2022/07/17 19:01:21;;;;;;;;;;;;;;;;;;2383615;53;1897;-76
2022/07/17 19:03:55;;;;;;;;;;;;;;;;;;2204521;67;1980;-76
2022/07/17 19:06:28;;;;;;;;;;;;;;;;;;2205709;67;1157;-76
2022/07/17 19:09:03;;;;;;;;;;;;;;;;;;2205259;59;1278;-76
2022/07/17 19:11:36;;;;;;;;;;;;;;;;;;2206493;59;1372;-76
2022/07/17 19:16:47;;;;;;;;;;;;;;;;;;2205042;59;1268;-55
2022/07/17 19:19:20;;;;;;;;;;;;;;;;;;2203627;67;1276;-54
2022/07/17 19:21:53;;;;;;;;;;;;;;;;;;2208007;64;1171;-54
2022/07/17 19:24:27;;;;;;;;;;;;;;;;;;2206115;59;2010;-55
2022/07/17 19:37:43;;;;;;;;;;;;;;;;;;2269786;53;1680;-65
2022/07/17 19:40:17;;;;;;;;;;;;;;;;;;2206814;59;1266;-65
2022/07/17 19:42:50;;;;;;;;;;;;;;;;;;2206760;67;1932;-65
2022/07/17 19:45:23;;;;;;;;;;;;;;;;;;2206760;59;1255;-63
2022/07/17 19:47:56;;;;;;;;;;;;;;;;;;2206607;67;1199;-63
2022/07/17 19:50:30;;;;;;;;;;;;;;;;;;2206618;67;1073;-64
2022/07/17 19:53:06;;;;;;;;;;;;;;;;;;2206271;59;1219;-63